createdAt,value
2022-08-30T00:00:00.649Z,41.30
2022-08-30T00:00:37.200Z,41.19
2022-08-30T00:01:14.346Z,41.05
2022-08-30T00:01:50.509Z,41.08
2022-08-30T00:02:26.630Z,41.28
2022-08-30T00:03:03.011Z,41.15
2022-08-30T00:03:39.036Z,41.28
2022-08-30T00:04:15.427Z,41.28
2022-08-30T00:04:51.035Z,41.04
2022-08-30T00:05:26.585Z,41.25
2022-08-30T00:06:03.139Z,41.31
2022-08-30T00:06:39.787Z,41.19
2022-08-30T00:07:16.389Z,41.22
2022-08-30T00:07:52.867Z,41.13
2022-08-30T00:08:29.274Z,41.37
2022-08-30T00:09:05.771Z,41.20
2022-08-30T00:09:43.929Z,41.35
2022-08-30T00:10:21.644Z,41.33
2022-08-30T00:10:58.952Z,41.23
2022-08-30T00:11:35.990Z,41.40
2022-08-30T00:12:17.426Z,41.37
2022-08-30T00:12:59.857Z,41.49
2022-08-30T00:13:40.142Z,41.41
2022-08-30T00:14:23.436Z,41.39
2022-08-30T00:15:03.674Z,41.35
2022-08-30T00:15:38.916Z,41.37
2022-08-30T00:16:15.317Z,41.34
2022-08-30T00:16:51.386Z,41.32
2022-08-30T00:17:28.285Z,41.21
2022-08-30T00:18:04.945Z,41.32
2022-08-30T00:18:41.600Z,41.33
2022-08-30T00:19:18.002Z,41.43
2022-08-30T00:19:54.509Z,41.42
2022-08-30T00:20:30.900Z,41.48
2022-08-30T00:21:06.719Z,41.55
2022-08-30T00:21:44.194Z,41.45
2022-08-30T00:22:20.252Z,41.40
2022-08-30T00:22:58.197Z,41.53
2022-08-30T00:23:34.364Z,41.43
2022-08-30T00:24:10.345Z,41.54
2022-08-30T00:24:46.844Z,41.54
2022-08-30T00:25:23.386Z,41.61
2022-08-30T00:25:58.762Z,41.59
2022-08-30T00:26:34.801Z,41.39
2022-08-30T00:27:10.825Z,41.40
2022-08-30T00:27:47.654Z,41.39
2022-08-30T00:28:25.097Z,41.55
2022-08-30T00:29:01.855Z,41.35
2022-08-30T00:29:37.296Z,41.53
2022-08-30T00:30:13.777Z,41.39
2022-08-30T00:30:50.686Z,41.47
2022-08-30T00:31:27.954Z,41.50
2022-08-30T00:32:04.957Z,41.41
2022-08-30T00:32:45.465Z,41.53
2022-08-30T00:33:27.390Z,41.58
2022-08-30T00:34:10.639Z,41.59
2022-08-30T00:34:51.406Z,41.28
2022-08-30T00:35:32.770Z,41.50
2022-08-30T00:36:16.069Z,41.41
2022-08-30T00:36:57.426Z,41.48
2022-08-30T00:37:39.035Z,41.33
2022-08-30T00:38:20.485Z,41.45
2022-08-30T00:39:01.713Z,41.44
2022-08-30T00:39:46.447Z,41.61
2022-08-30T00:40:25.576Z,41.39
2022-08-30T00:41:05.173Z,41.46
2022-08-30T00:41:41.702Z,41.55
2022-08-30T00:42:18.696Z,41.54
2022-08-30T00:42:58.157Z,41.51
2022-08-30T00:43:36.738Z,41.58
2022-08-30T00:44:12.894Z,41.59
2022-08-30T00:44:49.515Z,41.47
2022-08-30T00:45:25.469Z,41.64
2022-08-30T00:46:02.335Z,41.49
2022-08-30T00:46:39.053Z,41.57
2022-08-30T00:47:14.987Z,41.57
2022-08-30T00:47:51.010Z,41.68
2022-08-30T00:48:27.316Z,41.62
2022-08-30T00:49:03.693Z,41.62
2022-08-30T00:49:39.846Z,41.70
2022-08-30T00:50:19.221Z,41.60
2022-08-30T00:50:55.537Z,41.65
2022-08-30T00:51:32.551Z,41.62
2022-08-30T00:52:10.914Z,41.68
2022-08-30T00:52:54.543Z,41.62
2022-08-30T00:53:34.070Z,41.53
2022-08-30T00:54:16.208Z,41.69
2022-08-30T00:54:54.253Z,41.56
2022-08-30T00:55:30.456Z,41.54
2022-08-30T00:56:06.145Z,41.75
2022-08-30T00:56:43.035Z,41.51
2022-08-30T00:57:19.596Z,41.54
2022-08-30T00:57:56.651Z,41.58
2022-08-30T00:58:33.614Z,41.42
2022-08-30T00:59:10.421Z,41.56
2022-08-30T00:59:47.001Z,41.61
2022-08-30T01:00:23.788Z,41.60
2022-08-30T01:00:59.724Z,41.60
2022-08-30T01:01:36.975Z,41.62
2022-08-30T01:02:14.536Z,41.61
2022-08-30T01:02:51.711Z,41.62
2022-08-30T01:03:28.275Z,41.84
2022-08-30T01:04:04.915Z,41.59
2022-08-30T01:04:41.643Z,41.59
2022-08-30T01:05:18.679Z,41.66
2022-08-30T01:05:54.557Z,41.62
2022-08-30T01:06:32.470Z,41.81
2022-08-30T01:07:08.541Z,41.70
2022-08-30T01:07:43.990Z,41.61
2022-08-30T01:08:20.903Z,41.53
2022-08-30T01:09:02.356Z,41.61
2022-08-30T01:09:42.579Z,41.47
2022-08-30T01:10:24.752Z,41.54
2022-08-30T01:11:06.432Z,41.68
2022-08-30T01:11:46.607Z,41.42
2022-08-30T01:12:27.905Z,41.29
2022-08-30T01:13:06.210Z,41.62
2022-08-30T01:13:46.599Z,41.54
2022-08-30T01:14:25.923Z,41.64
2022-08-30T01:15:01.280Z,41.80
2022-08-30T01:15:38.095Z,41.78
2022-08-30T01:16:14.565Z,41.83
2022-08-30T01:16:49.984Z,41.59
2022-08-30T01:17:26.932Z,41.62
2022-08-30T01:18:03.978Z,41.70
2022-08-30T01:18:43.190Z,41.89
2022-08-30T01:19:58.562Z,41.99
2022-08-30T01:20:59.533Z,41.83
2022-08-30T01:21:40.773Z,41.75
2022-08-30T01:22:26.286Z,41.97
2022-08-30T01:23:06.439Z,41.95
2022-08-30T01:23:53.125Z,41.98
2022-08-30T01:25:46.671Z,42.02
2022-08-30T01:29:26.242Z,41.97
2022-08-30T01:31:31.200Z,42.04
2022-08-30T01:32:21.119Z,42.01
2022-08-30T01:33:05.841Z,41.87
2022-08-30T01:33:50.533Z,41.74
2022-08-30T01:34:33.802Z,41.88
2022-08-30T01:35:16.816Z,41.91
2022-08-30T01:36:16.250Z,41.79
2022-08-30T01:37:03.598Z,41.88
2022-08-30T01:37:48.665Z,41.93
2022-08-30T01:39:31.920Z,42.15
2022-08-30T01:40:28.096Z,41.96
2022-08-30T01:42:10.423Z,42.06
2022-08-30T01:43:03.065Z,42.12
2022-08-30T01:43:57.142Z,42.28
2022-08-30T01:44:53.250Z,42.07
2022-08-30T01:45:44.562Z,42.29
2022-08-30T01:46:29.057Z,42.23
2022-08-30T01:47:12.961Z,42.18
2022-08-30T01:47:56.555Z,42.16
2022-08-30T01:48:52.023Z,42.31
2022-08-30T01:49:36.300Z,42.25
2022-08-30T01:50:19.618Z,42.16
2022-08-30T01:51:01.435Z,42.32
2022-08-30T01:51:47.812Z,42.27
2022-08-30T01:52:31.898Z,42.48
2022-08-30T01:53:18.391Z,42.43
2022-08-30T01:54:05.959Z,42.29
2022-08-30T01:54:53.530Z,42.43
2022-08-30T01:57:53.223Z,42.30
2022-08-30T01:58:49.685Z,42.25
2022-08-30T01:59:42.335Z,42.28
2022-08-30T02:03:22.779Z,42.22
2022-08-30T02:04:21.842Z,42.25
2022-08-30T02:05:07.142Z,42.36
2022-08-30T02:05:52.473Z,42.64
2022-08-30T02:06:35.049Z,42.41
2022-08-30T02:07:19.333Z,42.58
2022-08-30T02:08:03.350Z,42.45
2022-08-30T02:08:45.462Z,42.50
2022-08-30T02:09:32.973Z,42.66
2022-08-30T02:10:21.576Z,42.94
2022-08-30T02:11:11.212Z,42.79
2022-08-30T02:11:55.582Z,42.80
2022-08-30T02:12:56.621Z,42.73
2022-08-30T02:13:47.896Z,42.90
2022-08-30T02:14:31.249Z,42.93
2022-08-30T02:15:15.413Z,42.91
2022-08-30T02:16:00.669Z,42.92
2022-08-30T02:16:43.654Z,42.89
2022-08-30T02:17:26.936Z,42.78
2022-08-30T02:18:14.106Z,43.03
2022-08-30T02:20:05.655Z,42.98
2022-08-30T02:20:58.037Z,42.96
2022-08-30T02:21:57.173Z,42.93
2022-08-30T02:22:49.224Z,43.05
2022-08-30T02:23:35.505Z,42.96
2022-08-30T02:24:19.737Z,43.02
2022-08-30T02:25:05.065Z,43.00
2022-08-30T02:25:49.608Z,42.97
2022-08-30T02:26:38.664Z,43.03
2022-08-30T02:27:19.490Z,43.11
2022-08-30T02:28:06.060Z,42.98
2022-08-30T02:29:01.202Z,43.06
2022-08-30T02:32:36.388Z,43.06
2022-08-30T02:34:28.838Z,43.18
2022-08-30T02:35:36.127Z,43.06
2022-08-30T02:36:26.325Z,43.15
2022-08-30T02:37:26.451Z,43.10
2022-08-30T02:38:16.881Z,43.16
2022-08-30T02:39:03.936Z,43.11
2022-08-30T02:39:49.462Z,42.95
2022-08-30T02:40:34.107Z,43.14
2022-08-30T02:41:21.303Z,43.26
2022-08-30T02:42:06.181Z,43.17
2022-08-30T02:42:52.236Z,43.25
2022-08-30T02:43:35.015Z,43.20
2022-08-30T02:44:18.474Z,43.16
2022-08-30T02:45:06.912Z,43.13
2022-08-30T02:46:07.694Z,43.12
2022-08-30T02:47:03.595Z,43.11
2022-08-30T02:47:55.217Z,43.34
2022-08-30T02:48:47.473Z,43.06
2022-08-30T02:49:49.390Z,43.14
2022-08-30T02:50:32.340Z,43.14
2022-08-30T02:51:15.265Z,43.24
2022-08-30T02:51:58.598Z,43.21
2022-08-30T02:55:25.574Z,43.03
2022-08-30T02:56:14.285Z,43.22
2022-08-30T02:57:20.386Z,43.21
2022-08-30T02:58:53.057Z,43.11
2022-08-30T02:59:45.004Z,43.29
2022-08-30T03:00:34.893Z,43.26
2022-08-30T03:01:29.247Z,43.32
2022-08-30T03:02:12.294Z,43.26
2022-08-30T03:02:58.253Z,43.28
2022-08-30T03:03:44.867Z,43.22
2022-08-30T03:04:30.744Z,43.35
2022-08-30T03:05:15.402Z,43.15
2022-08-30T03:05:59.735Z,43.37
2022-08-30T03:06:45.114Z,43.35
2022-08-30T03:07:32.722Z,43.41
2022-08-30T03:08:16.892Z,43.35
2022-08-30T03:09:13.861Z,43.33
2022-08-30T03:10:09.925Z,43.36
2022-08-30T03:11:05.608Z,43.57
2022-08-30T03:14:58.195Z,43.17
2022-08-30T03:16:06.775Z,43.01
2022-08-30T03:17:00.009Z,43.06
2022-08-30T03:17:50.124Z,42.92
2022-08-30T03:18:45.454Z,42.94
2022-08-30T03:19:40.203Z,43.02
2022-08-30T03:20:34.472Z,42.91
2022-08-30T03:21:18.035Z,42.93
2022-08-30T03:22:02.412Z,43.02
2022-08-30T03:22:47.296Z,43.01
2022-08-30T03:23:29.641Z,43.06
2022-08-30T03:24:15.802Z,42.99
2022-08-30T03:25:02.113Z,43.31
2022-08-30T03:25:48.626Z,43.32
2022-08-30T03:26:38.274Z,43.20
2022-08-30T03:27:24.892Z,43.29
2022-08-30T03:28:24.893Z,43.25
2022-08-30T03:29:16.236Z,43.42
2022-08-30T03:30:01.962Z,43.28
2022-08-30T03:30:45.822Z,43.29
2022-08-30T03:31:29.654Z,43.24
2022-08-30T03:32:13.348Z,43.34
2022-08-30T03:32:57.699Z,43.35
2022-08-30T03:33:37.674Z,43.20
2022-08-30T03:34:31.016Z,43.34
2022-08-30T03:35:18.047Z,43.39
2022-08-30T03:36:05.223Z,43.25
2022-08-30T03:36:56.959Z,43.32
2022-08-30T03:37:56.193Z,43.11
2022-08-30T03:40:39.806Z,43.19
2022-08-30T03:41:41.693Z,43.21
2022-08-30T03:42:59.825Z,43.18
2022-08-30T03:44:48.811Z,43.22
2022-08-30T03:45:42.881Z,43.32
2022-08-30T03:46:38.577Z,43.32
2022-08-30T03:47:37.470Z,43.32
2022-08-30T03:48:23.526Z,43.28
2022-08-30T03:49:08.878Z,43.16
2022-08-30T03:49:52.144Z,43.18
2022-08-30T03:51:34.314Z,43.28
2022-08-30T03:52:42.534Z,43.21
2022-08-30T03:53:29.827Z,42.92
2022-08-30T03:54:55.773Z,43.01
2022-08-30T03:55:51.975Z,43.21
2022-08-30T03:56:47.314Z,43.16
2022-08-30T03:57:32.198Z,43.22
2022-08-30T03:58:19.294Z,43.07
2022-08-30T03:59:02.953Z,43.10
2022-08-30T03:59:45.729Z,43.22
2022-08-30T04:00:30.593Z,42.95
2022-08-30T04:01:11.218Z,42.95
2022-08-30T04:01:57.591Z,42.99
2022-08-30T04:02:44.027Z,43.02
2022-08-30T04:03:34.746Z,43.04
2022-08-30T04:04:26.253Z,42.94
2022-08-30T04:05:18.992Z,43.21
2022-08-30T04:06:06.070Z,43.11
2022-08-30T04:06:49.257Z,43.02
2022-08-30T04:07:40.424Z,43.11
2022-08-30T04:08:43.787Z,43.19
2022-08-30T04:09:31.975Z,43.30
2022-08-30T04:10:18.255Z,43.29
2022-08-30T04:11:06.565Z,43.34
2022-08-30T04:13:02.828Z,43.30
2022-08-30T04:13:48.690Z,43.27
2022-08-30T04:14:47.861Z,43.32
2022-08-30T04:15:32.625Z,43.35
2022-08-30T04:16:15.612Z,43.25
2022-08-30T04:16:59.814Z,43.35
2022-08-30T04:17:40.771Z,43.30
2022-08-30T04:18:27.226Z,43.27
2022-08-30T04:19:13.404Z,43.33
2022-08-30T04:19:58.720Z,43.29
2022-08-30T04:20:45.695Z,43.29
2022-08-30T04:21:31.490Z,43.23
2022-08-30T04:22:18.338Z,43.21
2022-08-30T04:23:01.060Z,43.39
2022-08-30T04:23:46.358Z,43.29
2022-08-30T04:24:31.482Z,43.02
2022-08-30T04:25:17.163Z,43.31
2022-08-30T04:26:01.336Z,43.42
2022-08-30T04:26:44.650Z,43.31
2022-08-30T04:27:26.734Z,43.40
2022-08-30T04:28:11.328Z,43.17
2022-08-30T04:28:56.399Z,43.35
2022-08-30T04:29:41.627Z,43.26
2022-08-30T04:30:29.406Z,43.22
2022-08-30T04:31:15.278Z,43.20
2022-08-30T04:32:01.321Z,43.13
2022-08-30T04:32:45.594Z,43.10
2022-08-30T04:33:32.359Z,43.36
2022-08-30T04:34:19.352Z,43.24
2022-08-30T04:35:04.487Z,43.23
2022-08-30T04:35:50.342Z,43.12
2022-08-30T04:36:35.105Z,43.21
2022-08-30T04:37:19.127Z,43.00
2022-08-30T04:38:22.351Z,43.13
2022-08-30T04:39:04.923Z,43.23
2022-08-30T04:39:49.526Z,43.14
2022-08-30T04:40:33.087Z,43.20
2022-08-30T04:41:18.255Z,43.13
2022-08-30T04:42:03.177Z,43.11
2022-08-30T04:42:48.836Z,43.28
2022-08-30T04:43:31.896Z,43.29
2022-08-30T04:44:19.538Z,43.03
2022-08-30T04:45:02.819Z,43.31
2022-08-30T04:45:49.979Z,43.21
2022-08-30T04:46:34.211Z,43.25
2022-08-30T04:47:18.627Z,43.20
2022-08-30T04:48:05.125Z,43.46
2022-08-30T04:48:46.715Z,43.31
2022-08-30T04:49:30.764Z,43.31
2022-08-30T04:50:18.168Z,43.26
2022-08-30T04:51:04.793Z,43.57
2022-08-30T04:51:50.299Z,43.45
2022-08-30T04:52:35.957Z,43.39
2022-08-30T04:53:21.537Z,43.46
2022-08-30T04:54:06.674Z,43.30
2022-08-30T04:54:51.857Z,43.29
2022-08-30T04:55:37.210Z,43.45
2022-08-30T04:56:25.099Z,43.40
2022-08-30T04:57:13.617Z,43.31
2022-08-30T04:58:00.722Z,43.26
2022-08-30T04:58:45.407Z,43.34
2022-08-30T04:59:35.756Z,43.49
2022-08-30T05:00:20.690Z,43.42
2022-08-30T05:01:08.943Z,43.33
2022-08-30T05:01:54.867Z,43.50
2022-08-30T05:02:40.494Z,43.52
2022-08-30T05:03:25.298Z,43.54
2022-08-30T05:04:15.365Z,43.40
2022-08-30T05:05:07.437Z,43.34
2022-08-30T05:05:52.637Z,43.52
2022-08-30T05:06:41.063Z,43.28
2022-08-30T05:07:30.142Z,43.41
2022-08-30T05:08:12.188Z,43.24
2022-08-30T05:08:59.658Z,43.21
2022-08-30T05:09:44.945Z,43.44
2022-08-30T05:10:30.642Z,43.29
2022-08-30T05:11:15.394Z,43.25
2022-08-30T05:12:01.803Z,43.34
2022-08-30T05:12:47.761Z,43.43
2022-08-30T05:13:37.688Z,43.41
2022-08-30T05:14:24.042Z,43.34
2022-08-30T05:15:12.947Z,43.41
2022-08-30T05:15:59.333Z,43.39
2022-08-30T05:16:44.142Z,43.45
2022-08-30T05:17:31.325Z,43.42
2022-08-30T05:18:16.559Z,43.40
2022-08-30T05:18:58.585Z,43.37
2022-08-30T05:19:44.570Z,43.42
2022-08-30T05:20:30.349Z,43.42
2022-08-30T05:21:14.191Z,43.31
2022-08-30T05:21:58.460Z,43.40
2022-08-30T05:22:40.927Z,43.42
2022-08-30T05:23:25.738Z,43.43
2022-08-30T05:24:07.047Z,43.37
2022-08-30T05:24:52.231Z,43.39
2022-08-30T05:25:38.081Z,43.32
2022-08-30T05:26:25.106Z,43.22
2022-08-30T05:27:09.178Z,43.30
2022-08-30T05:27:53.581Z,43.26
2022-08-30T05:28:37.742Z,43.35
2022-08-30T05:29:19.156Z,43.47
2022-08-30T05:30:05.572Z,43.37
2022-08-30T05:30:53.076Z,43.25
2022-08-30T05:31:38.482Z,43.28
2022-08-30T05:32:24.238Z,43.34
2022-08-30T05:33:06.766Z,43.30
2022-08-30T05:33:51.290Z,43.39
2022-08-30T05:34:43.544Z,43.44
2022-08-30T05:35:29.819Z,43.43
2022-08-30T05:36:14.436Z,43.49
2022-08-30T05:37:01.847Z,43.37
2022-08-30T05:37:46.869Z,43.48
2022-08-30T05:38:32.124Z,43.47
2022-08-30T05:39:18.182Z,43.45
2022-08-30T05:40:11.209Z,43.37
2022-08-30T05:40:53.822Z,43.37
2022-08-30T05:41:39.342Z,43.52
2022-08-30T05:42:22.661Z,43.47
2022-08-30T05:43:07.477Z,43.45
2022-08-30T05:43:51.841Z,43.37
2022-08-30T05:44:36.082Z,43.58
2022-08-30T05:45:16.999Z,43.49
2022-08-30T05:46:03.347Z,43.40
2022-08-30T05:46:47.760Z,43.45
2022-08-30T05:47:32.160Z,43.55
2022-08-30T05:48:15.327Z,43.48
2022-08-30T05:49:00.577Z,43.35
2022-08-30T05:49:46.773Z,43.46
2022-08-30T05:50:28.687Z,43.56
2022-08-30T05:51:13.605Z,43.47
2022-08-30T05:51:57.587Z,43.50
2022-08-30T05:52:40.457Z,43.55
2022-08-30T05:53:26.962Z,43.35
2022-08-30T05:54:12.701Z,43.59
2022-08-30T05:55:00.190Z,43.46
2022-08-30T05:55:51.363Z,43.55
2022-08-30T05:56:36.739Z,43.62
2022-08-30T05:57:22.756Z,43.50
2022-08-30T05:58:10.516Z,43.52
2022-08-30T05:58:57.733Z,43.61
2022-08-30T05:59:42.744Z,43.66
2022-08-30T06:00:26.516Z,43.53
2022-08-30T06:01:07.232Z,43.57
2022-08-30T06:01:51.181Z,43.60
2022-08-30T06:02:39.580Z,43.72
2022-08-30T06:03:26.056Z,43.69
2022-08-30T06:04:12.008Z,43.63
2022-08-30T06:04:56.738Z,43.65
2022-08-30T06:05:42.192Z,43.73
2022-08-30T06:06:24.219Z,43.79
2022-08-30T06:07:08.675Z,43.93
2022-08-30T06:07:54.646Z,43.75
2022-08-30T06:08:41.889Z,43.98
2022-08-30T06:09:25.786Z,43.64
2022-08-30T06:10:13.385Z,43.87
2022-08-30T06:10:58.744Z,43.77
2022-08-30T06:11:42.769Z,43.80
2022-08-30T06:12:31.781Z,43.87
2022-08-30T06:13:17.958Z,43.69
2022-08-30T06:14:11.941Z,43.83
2022-08-30T06:14:57.566Z,43.73
2022-08-30T06:15:42.962Z,43.64
2022-08-30T06:16:31.952Z,43.76
2022-08-30T06:17:15.825Z,43.68
2022-08-30T06:17:58.903Z,43.73
2022-08-30T06:18:49.974Z,43.72
2022-08-30T06:20:06.819Z,43.76
2022-08-30T06:20:56.234Z,44.01
2022-08-30T06:21:49.934Z,43.90
2022-08-30T06:22:36.116Z,43.75
2022-08-30T06:24:56.003Z,43.71
2022-08-30T06:25:41.294Z,43.91
2022-08-30T06:26:27.535Z,43.85
2022-08-30T06:27:13.873Z,44.02
2022-08-30T06:27:57.896Z,43.89
2022-08-30T06:28:43.140Z,44.09
2022-08-30T06:29:33.112Z,43.86
2022-08-30T06:31:12.772Z,43.82
2022-08-30T06:31:59.154Z,43.85
2022-08-30T06:32:43.490Z,43.81
2022-08-30T06:33:29.998Z,44.00
2022-08-30T06:34:55.076Z,44.14
2022-08-30T06:35:59.127Z,44.22
2022-08-30T06:36:44.093Z,44.32
2022-08-30T06:37:31.966Z,44.32
2022-08-30T06:38:16.113Z,44.38
2022-08-30T06:39:03.898Z,44.30
2022-08-30T06:39:50.256Z,44.42
2022-08-30T06:40:35.483Z,44.49
2022-08-30T06:41:20.969Z,44.53
2022-08-30T06:42:06.572Z,44.50
2022-08-30T06:42:50.498Z,44.54
2022-08-30T06:43:46.767Z,44.47
2022-08-30T06:44:33.363Z,44.44
2022-08-30T06:45:18.761Z,44.54
2022-08-30T06:46:22.605Z,44.59
2022-08-30T06:47:51.906Z,44.66
2022-08-30T06:48:38.006Z,44.49
2022-08-30T06:49:27.758Z,44.71
2022-08-30T06:50:32.361Z,44.82
2022-08-30T06:51:25.124Z,44.83
2022-08-30T06:52:38.110Z,44.76
2022-08-30T06:54:22.415Z,44.89
2022-08-30T06:55:38.898Z,44.80
2022-08-30T06:56:58.104Z,44.92
2022-08-30T06:57:44.593Z,45.16
2022-08-30T06:58:36.529Z,45.20
2022-08-30T06:59:25.613Z,45.16
2022-08-30T07:00:38.684Z,45.19
2022-08-30T07:02:33.991Z,45.36
2022-08-30T07:03:20.651Z,45.21
2022-08-30T07:04:03.519Z,45.36
2022-08-30T07:04:50.554Z,45.40
2022-08-30T07:05:35.461Z,45.16
2022-08-30T07:06:26.193Z,45.45
2022-08-30T07:07:33.591Z,45.22
2022-08-30T07:08:20.993Z,45.32
2022-08-30T07:09:24.332Z,45.51
2022-08-30T07:10:29.125Z,45.24
2022-08-30T07:11:17.196Z,45.33
2022-08-30T07:12:16.603Z,45.47
2022-08-30T07:13:05.170Z,45.25
2022-08-30T07:13:53.135Z,45.26
2022-08-30T07:14:38.427Z,45.19
2022-08-30T07:15:28.680Z,45.31
2022-08-30T07:16:22.554Z,45.41
2022-08-30T07:17:10.763Z,45.48
2022-08-30T07:17:59.828Z,45.43
2022-08-30T07:18:49.836Z,45.56
2022-08-30T07:19:32.782Z,45.51
2022-08-30T07:21:12.759Z,45.48
2022-08-30T07:22:00.310Z,45.63
2022-08-30T07:22:57.545Z,45.77
2022-08-30T07:25:37.967Z,45.63
2022-08-30T07:26:26.505Z,45.53
2022-08-30T07:27:13.349Z,45.54
2022-08-30T07:29:07.900Z,45.71
2022-08-30T07:30:06.925Z,45.74
2022-08-30T07:32:55.346Z,46.06
2022-08-30T07:34:14.931Z,46.24
2022-08-30T07:35:00.497Z,45.97
2022-08-30T07:36:24.810Z,45.99
2022-08-30T07:37:11.434Z,46.11
2022-08-30T07:38:08.943Z,46.24
2022-08-30T07:39:47.745Z,45.98
2022-08-30T07:40:40.280Z,45.93
2022-08-30T07:41:36.844Z,45.86
2022-08-30T07:42:26.253Z,45.71
2022-08-30T07:43:23.219Z,45.92
2022-08-30T07:44:00.193Z,46.08
2022-08-30T07:44:36.318Z,46.05
2022-08-30T07:45:12.741Z,46.11
2022-08-30T07:45:49.584Z,46.15
2022-08-30T07:46:26.333Z,46.11
2022-08-30T07:47:02.780Z,45.99
2022-08-30T07:47:38.633Z,46.22
2022-08-30T07:48:14.637Z,46.17
2022-08-30T07:48:51.347Z,45.98
2022-08-30T07:49:28.217Z,46.05
2022-08-30T07:50:04.992Z,46.04
2022-08-30T07:50:43.029Z,45.96
2022-08-30T07:51:24.532Z,45.89
2022-08-30T07:52:03.476Z,45.80
2022-08-30T07:52:42.086Z,45.57
2022-08-30T07:53:17.878Z,45.74
2022-08-30T07:53:54.391Z,45.67
2022-08-30T07:54:31.472Z,45.57
2022-08-30T07:55:08.446Z,45.48
2022-08-30T07:55:44.636Z,45.52
2022-08-30T07:56:21.260Z,45.41
2022-08-30T07:56:58.216Z,45.47
2022-08-30T07:57:35.526Z,45.46
2022-08-30T07:58:11.902Z,45.69
2022-08-30T07:58:47.629Z,45.50
2022-08-30T07:59:24.215Z,45.74
2022-08-30T08:00:01.316Z,45.66
2022-08-30T08:00:37.899Z,45.84
2022-08-30T08:01:14.234Z,45.83
2022-08-30T08:01:51.013Z,45.86
2022-08-30T08:02:27.882Z,46.04
2022-08-30T08:03:04.220Z,45.91
2022-08-30T08:03:39.404Z,46.12
2022-08-30T08:04:17.170Z,45.96
2022-08-30T08:04:54.124Z,46.00
2022-08-30T08:05:30.471Z,46.11
2022-08-30T08:06:07.274Z,46.14
2022-08-30T08:06:44.015Z,46.08
2022-08-30T08:07:24.609Z,45.95
2022-08-30T08:08:02.667Z,45.83
2022-08-30T08:08:41.873Z,45.78
2022-08-30T08:09:17.393Z,45.72
2022-08-30T08:09:53.906Z,45.76
2022-08-30T08:10:30.510Z,45.87
2022-08-30T08:11:06.880Z,46.02
2022-08-30T08:11:43.409Z,45.94
2022-08-30T08:12:19.923Z,46.10
2022-08-30T08:12:56.392Z,46.06
2022-08-30T08:13:47.281Z,46.09
2022-08-30T08:14:29.412Z,46.17
2022-08-30T08:15:08.710Z,46.20
2022-08-30T08:15:44.606Z,46.13
2022-08-30T08:16:21.625Z,46.03
2022-08-30T08:16:58.754Z,46.03
2022-08-30T08:17:35.455Z,45.92
2022-08-30T08:18:12.105Z,45.77
2022-08-30T08:18:48.474Z,45.72
2022-08-30T08:19:25.074Z,45.47
2022-08-30T08:20:01.590Z,45.82
2022-08-30T08:20:36.909Z,45.75
2022-08-30T08:21:14.081Z,45.77
2022-08-30T08:21:59.409Z,45.83
2022-08-30T08:22:48.032Z,45.96
2022-08-30T08:23:25.043Z,46.16
2022-08-30T08:24:01.079Z,46.11
2022-08-30T08:24:36.786Z,46.41
2022-08-30T08:25:13.716Z,46.27
2022-08-30T08:25:49.681Z,46.47
2022-08-30T08:26:26.239Z,46.37
2022-08-30T08:27:02.441Z,46.21
2022-08-30T08:27:38.293Z,46.26
2022-08-30T08:28:14.997Z,46.46
2022-08-30T08:28:51.511Z,46.55
2022-08-30T08:29:27.159Z,46.60
2022-08-30T08:30:03.957Z,46.48
2022-08-30T08:30:40.941Z,46.57
2022-08-30T08:31:18.243Z,46.72
2022-08-30T08:31:55.217Z,46.71
2022-08-30T08:32:31.440Z,46.79
2022-08-30T08:33:08.298Z,46.81
2022-08-30T08:33:44.513Z,46.80
2022-08-30T08:34:20.148Z,46.81
2022-08-30T08:34:56.537Z,46.85
2022-08-30T08:35:32.093Z,46.76
2022-08-30T08:36:09.724Z,46.84
2022-08-30T08:36:46.101Z,46.79
2022-08-30T08:37:26.713Z,46.82
2022-08-30T08:38:03.128Z,46.79
2022-08-30T08:38:40.183Z,47.08
2022-08-30T08:39:16.528Z,47.08
2022-08-30T08:39:52.251Z,46.99
2022-08-30T08:40:28.623Z,47.06
2022-08-30T08:41:05.333Z,47.20
2022-08-30T08:41:42.142Z,46.90
2022-08-30T08:42:18.198Z,46.96
2022-08-30T08:42:54.330Z,46.97
2022-08-30T08:43:31.137Z,47.03
2022-08-30T08:44:10.835Z,47.22
2022-08-30T08:44:56.212Z,47.11
2022-08-30T08:45:55.480Z,47.26
2022-08-30T08:46:58.594Z,47.23
2022-08-30T08:47:54.600Z,47.17
2022-08-30T08:48:59.079Z,47.15
2022-08-30T08:50:47.201Z,47.06
2022-08-30T08:51:40.775Z,47.27
2022-08-30T08:52:28.824Z,47.31
2022-08-30T08:53:45.142Z,47.36
2022-08-30T08:54:22.030Z,47.47
2022-08-30T08:55:24.882Z,47.24
2022-08-30T08:56:28.383Z,47.37
2022-08-30T08:57:17.044Z,47.37
2022-08-30T08:58:05.667Z,47.47
2022-08-30T08:58:52.295Z,47.46
2022-08-30T08:59:35.995Z,47.35
2022-08-30T09:00:20.572Z,47.43
2022-08-30T09:01:05.711Z,47.52
2022-08-30T09:01:51.163Z,47.35
2022-08-30T09:02:41.423Z,47.45
2022-08-30T09:03:32.299Z,47.48
2022-08-30T09:04:26.293Z,47.51
2022-08-30T09:05:23.679Z,47.41
2022-08-30T09:06:09.031Z,47.53
2022-08-30T09:09:02.567Z,47.27
2022-08-30T09:11:07.137Z,47.41
2022-08-30T09:11:55.136Z,47.55
2022-08-30T09:12:59.350Z,47.63
2022-08-30T09:13:51.542Z,47.58
2022-08-30T09:14:38.854Z,47.72
2022-08-30T09:15:26.575Z,47.66
2022-08-30T09:16:08.828Z,47.60
2022-08-30T09:17:55.444Z,47.69
2022-08-30T09:19:15.914Z,47.69
2022-08-30T09:21:20.606Z,47.96
2022-08-30T09:22:05.461Z,47.72
2022-08-30T09:22:54.277Z,47.93
2022-08-30T09:23:43.490Z,47.77
2022-08-30T09:24:40.371Z,47.82
2022-08-30T09:25:23.774Z,47.81
2022-08-30T09:26:10.943Z,47.74
2022-08-30T09:26:58.434Z,47.93
2022-08-30T09:27:44.385Z,47.66
2022-08-30T09:28:33.065Z,47.89
2022-08-30T09:29:19.962Z,47.92
2022-08-30T09:30:07.986Z,47.88
2022-08-30T09:31:11.913Z,47.87
2022-08-30T09:32:25.425Z,47.91
2022-08-30T09:33:00.474Z,48.00
2022-08-30T09:34:11.307Z,47.88
2022-08-30T09:35:52.172Z,47.83
2022-08-30T09:36:33.160Z,48.00
2022-08-30T09:37:09.963Z,47.85
2022-08-30T09:37:48.657Z,47.98
2022-08-30T09:38:30.023Z,47.96
2022-08-30T09:39:11.342Z,47.87
2022-08-30T09:39:47.633Z,47.61
2022-08-30T09:40:23.716Z,47.63
2022-08-30T09:41:00.639Z,47.83
2022-08-30T09:41:37.457Z,47.68
2022-08-30T09:42:16.644Z,47.65
2022-08-30T09:42:57.495Z,47.63
2022-08-30T09:43:38.911Z,47.51
2022-08-30T09:44:18.236Z,47.51
2022-08-30T09:44:54.102Z,47.27
2022-08-30T09:45:29.928Z,47.24
2022-08-30T09:46:06.494Z,47.16
2022-08-30T09:46:42.820Z,47.30
2022-08-30T09:47:23.536Z,47.27
2022-08-30T09:48:00.165Z,47.51
2022-08-30T09:48:37.302Z,47.86
2022-08-30T09:49:14.574Z,47.63
2022-08-30T09:49:50.968Z,47.78
2022-08-30T09:50:27.799Z,47.77
2022-08-30T09:51:03.305Z,47.88
2022-08-30T09:51:40.941Z,47.74
2022-08-30T09:52:17.622Z,47.82
2022-08-30T09:52:55.645Z,47.99
2022-08-30T09:53:35.210Z,47.76
2022-08-30T09:54:17.643Z,47.84
2022-08-30T09:54:53.735Z,47.78
2022-08-30T09:55:31.176Z,47.76
2022-08-30T09:56:07.406Z,48.10
2022-08-30T09:56:45.678Z,47.88
2022-08-30T09:57:33.741Z,47.74
2022-08-30T09:58:09.664Z,47.82
2022-08-30T09:58:47.809Z,47.73
2022-08-30T09:59:25.668Z,47.88
2022-08-30T10:00:01.572Z,47.79
2022-08-30T10:00:39.504Z,47.83
2022-08-30T10:01:15.646Z,47.96
2022-08-30T10:01:51.519Z,48.14
2022-08-30T10:02:28.229Z,48.07
2022-08-30T10:03:06.595Z,47.85
2022-08-30T10:03:43.829Z,48.09
2022-08-30T10:04:20.386Z,47.97
2022-08-30T10:04:59.266Z,48.03
2022-08-30T10:05:39.662Z,47.81
2022-08-30T10:06:16.019Z,47.91
2022-08-30T10:06:51.671Z,48.08
2022-08-30T10:09:19.987Z,48.26
2022-08-30T10:09:57.164Z,48.06
2022-08-30T10:10:33.304Z,47.96
2022-08-30T10:11:09.901Z,48.12
2022-08-30T10:11:45.764Z,48.24
2022-08-30T10:12:22.751Z,48.19
2022-08-30T10:12:59.790Z,47.99
2022-08-30T10:13:36.778Z,47.93
2022-08-30T10:14:12.759Z,48.01
2022-08-30T10:14:48.716Z,48.03
2022-08-30T10:15:25.773Z,47.98
2022-08-30T10:16:01.892Z,47.93
2022-08-30T10:16:37.511Z,47.99
2022-08-30T10:17:13.911Z,47.99
2022-08-30T10:17:50.379Z,48.07
2022-08-30T10:18:26.429Z,48.25
2022-08-30T10:19:04.304Z,48.38
2022-08-30T10:19:41.897Z,48.40
2022-08-30T10:20:18.338Z,48.34
2022-08-30T10:20:54.237Z,48.43
2022-08-30T10:21:31.519Z,48.22
2022-08-30T10:22:13.163Z,48.18
2022-08-30T10:22:55.740Z,48.11
2022-08-30T10:23:35.476Z,48.24